Time;durP1;ratioP1;P1;durP2;ratioP2;P2;SDS_P1;SDS_P2;PMS_P1;PMS_P2;Temp;Humidity;BMP_temperature;BMP_pressure;BME280_temperature;BME280_humidity;BME280_pressure;Samples;Min_cycle;Max_cycle;Signal;HPM_P1;HPM_P2
2022/01/13 00:01:45;;;;;;;31.25;23.40;;;;;;;-4.78;100.00;97936.28;5032460;28;24485;-76
2022/01/13 00:04:15;;;;;;;29.70;23.52;;;;;;;-4.68;100.00;97940.81;5032292;28;24430;-77
2022/01/13 00:06:42;;;;;;;26.60;22.60;;;;;;;-4.79;100.00;97937.09;5031696;28;24456;-77
2022/01/13 00:09:09;;;;;;;28.95;23.00;;;;;;;-4.60;100.00;97943.56;5031999;28;24412;-76
2022/01/13 00:11:36;;;;;;;33.20;24.93;;;;;;;-4.91;100.00;97931.66;5032226;28;24428;-77
2022/01/13 00:14:26;;;;;;;30.70;23.67;;;;;;;-4.69;100.00;97938.25;5032000;28;24428;-77
2022/01/13 00:17:11;;;;;;;32.45;24.85;;;;;;;-4.50;100.00;97937.16;5031883;28;24779;-77
2022/01/13 00:19:57;;;;;;;33.67;25.42;;;;;;;-4.44;100.00;97933.13;5031891;28;24420;-77
2022/01/13 00:22:39;;;;;;;37.20;26.38;;;;;;;-4.39;100.00;97939.19;5031737;28;25058;-77
2022/01/13 00:25:10;;;;;;;32.10;24.27;;;;;;;-4.45;100.00;97948.25;5031511;28;24984;-76
2022/01/13 00:27:39;;;;;;;28.88;20.20;;;;;;;-4.64;100.00;97945.16;5031452;28;24444;-76
2022/01/13 00:30:13;;;;;;;27.23;21.00;;;;;;;-4.51;100.00;97948.09;5031641;28;24431;-76
2022/01/13 00:32:41;;;;;;;31.35;24.13;;;;;;;-4.34;100.00;97951.09;5031901;28;24420;-76
2022/01/13 00:35:09;;;;;;;43.22;28.10;;;;;;;-4.30;100.00;97955.44;5031668;28;24428;-76
2022/01/13 00:37:37;;;;;;;41.17;26.80;;;;;;;-4.17;100.00;97950.81;5031263;28;24423;-77
2022/01/13 00:40:05;;;;;;;34.83;24.37;;;;;;;-4.17;100.00;97952.47;5031814;28;24622;-76
2022/01/13 00:42:32;;;;;;;29.55;19.45;;;;;;;-4.17;100.00;97945.75;5031414;28;24427;-76
2022/01/13 00:45:00;;;;;;;31.63;20.42;;;;;;;-4.17;100.00;97950.81;5031527;28;24420;-77
2022/01/13 00:47:29;;;;;;;26.92;21.15;;;;;;;-4.20;100.00;97953.25;5030869;28;24518;-77
2022/01/13 00:49:57;;;;;;;32.03;22.77;;;;;;;-4.33;100.00;97958.75;5031028;28;25004;-77
2022/01/13 00:52:24;;;;;;;44.03;27.10;;;;;;;-4.24;100.00;97960.69;5031292;28;24458;-77
2022/01/13 00:54:50;;;;;;;44.25;28.48;;;;;;;-4.08;100.00;97954.41;5031317;28;24423;-78
2022/01/13 00:57:17;;;;;;;48.03;29.52;;;;;;;-3.94;100.00;97965.81;5030677;28;24428;-76
2022/01/13 00:59:43;;;;;;;34.65;22.10;;;;;;;-3.47;100.00;97964.63;5031430;28;24424;-77
2022/01/13 01:02:09;;;;;;;23.02;19.65;;;;;;;-3.67;100.00;97966.63;5033439;28;24953;-77
2022/01/13 01:04:36;;;;;;;31.38;20.00;;;;;;;-3.60;100.00;97980.28;5033640;28;24969;-77
2022/01/13 01:07:04;;;;;;;25.95;20.13;;;;;;;-3.85;100.00;97972.84;5031213;28;24455;-76
2022/01/13 01:09:39;;;;;;;26.97;18.73;;;;;;;-3.65;100.00;97982.69;5023392;28;24529;-76
2022/01/13 01:12:06;;;;;;;22.63;18.38;;;;;;;-3.57;100.00;97975.31;5031059;28;24778;-77
2022/01/13 01:14:35;;;;;;;20.38;18.23;;;;;;;-3.49;100.00;97976.38;5030864;28;24989;-77
2022/01/13 01:17:03;;;;;;;23.85;19.27;;;;;;;-3.95;100.00;97981.81;5014536;28;24432;-77
2022/01/13 01:19:30;;;;;;;21.88;18.05;;;;;;;-3.90;100.00;97986.19;5012012;28;24420;-77
2022/01/13 01:25:01;;;;;;;24.30;19.55;;;;;;;-3.73;100.00;97980.78;5021951;28;24431;-76
2022/01/13 01:27:32;;;;;;;21.73;18.60;;;;;;;-3.77;100.00;97982.34;5030388;28;25061;-76
2022/01/13 01:30:04;;;;;;;22.80;19.42;;;;;;;-3.65;100.00;97987.75;5030719;28;24953;-76
2022/01/13 01:32:33;;;;;;;21.52;18.40;;;;;;;-3.61;100.00;97980.25;5030528;28;24427;-76
2022/01/13 01:35:02;;;;;;;21.27;18.42;;;;;;;-3.66;100.00;97988.59;5031030;28;24428;-77
2022/01/13 01:37:30;;;;;;;22.98;18.75;;;;;;;-3.86;100.00;97988.81;5030414;28;24524;-76
2022/01/13 01:39:59;;;;;;;20.08;17.92;;;;;;;-3.76;100.00;97986.59;5030523;28;24950;-77
2022/01/13 01:42:27;;;;;;;21.45;18.83;;;;;;;-3.79;100.00;97986.50;5030593;28;24422;-77
2022/01/13 01:44:57;;;;;;;21.70;19.10;;;;;;;-3.69;100.00;97985.97;5030464;28;24428;-77
2022/01/13 01:47:27;;;;;;;24.13;21.17;;;;;;;-3.70;100.00;97985.94;5030119;28;24861;-76
2022/01/13 01:49:57;;;;;;;31.27;24.23;;;;;;;-3.68;100.00;97982.59;5030649;28;24427;-76
2022/01/13 01:52:25;;;;;;;22.27;19.13;;;;;;;-3.81;100.00;97985.63;5030537;28;24482;-77
2022/01/13 01:54:52;;;;;;;21.70;19.35;;;;;;;-3.73;100.00;97985.84;5030636;28;24788;-77
2022/01/13 01:57:22;;;;;;;24.27;20.05;;;;;;;-3.59;100.00;97983.69;5030124;28;24428;-77
2022/01/13 01:59:49;;;;;;;20.27;18.07;;;;;;;-3.62;100.00;97987.00;5032707;28;24509;-77
2022/01/13 02:02:16;;;;;;;25.27;20.42;;;;;;;-3.56;100.00;97986.28;5034615;28;24420;-76
2022/01/13 02:04:44;;;;;;;21.95;18.85;;;;;;;-3.47;100.00;97986.56;5034457;28;24423;-77
2022/01/13 02:07:12;;;;;;;20.27;17.98;;;;;;;-3.46;100.00;97988.28;5034200;28;24881;-77
2022/01/13 02:09:41;;;;;;;21.13;17.50;;;;;;;-3.56;100.00;97978.69;5034358;28;24459;-77
2022/01/13 02:12:14;;;;;;;20.90;18.03;;;;;;;-3.71;100.00;97981.66;5034577;28;24449;-77
2022/01/13 02:14:55;;;;;;;23.47;18.53;;;;;;;-3.77;100.00;97979.81;5034149;28;24998;-77
2022/01/13 02:17:25;;;;;;;21.27;18.85;;;;;;;-3.63;100.00;97967.56;5034258;28;24516;-77
2022/01/13 02:19:52;;;;;;;24.73;19.33;;;;;;;-3.78;100.00;97964.56;5034276;28;24438;-77
2022/01/13 02:22:20;;;;;;;22.75;18.88;;;;;;;-3.71;100.00;97964.81;5033912;28;24426;-77
2022/01/13 02:24:47;;;;;;;24.65;19.55;;;;;;;-3.68;100.00;97972.47;5033902;28;25011;-76
2022/01/13 02:27:13;;;;;;;23.67;19.73;;;;;;;-3.73;100.00;97968.09;5033904;28;24459;-77
2022/01/13 02:29:40;;;;;;;24.88;19.73;;;;;;;-3.66;100.00;97970.84;5034274;28;24427;-77
2022/01/13 02:32:07;;;;;;;30.35;20.63;;;;;;;-3.88;100.00;97960.09;5034410;28;24825;-77
2022/01/13 02:34:34;;;;;;;22.23;18.55;;;;;;;-3.66;100.00;97957.34;5033924;28;24427;-77
2022/01/13 02:37:02;;;;;;;22.60;19.15;;;;;;;-3.71;100.00;97957.22;5033772;28;24505;-77
2022/01/13 02:39:31;;;;;;;24.50;19.30;;;;;;;-3.60;100.00;97949.03;5034082;28;24537;-76
2022/01/13 02:42:00;;;;;;;23.05;18.23;;;;;;;-3.64;100.00;97958.22;5034023;28;24477;-77
2022/01/13 02:44:27;;;;;;;22.65;17.98;;;;;;;-3.76;100.00;97955.34;5033946;28;24828;-77
2022/01/13 02:47:08;;;;;;;22.17;18.93;;;;;;;-3.84;100.00;97947.53;5033317;28;24514;-77
2022/01/13 02:49:35;;;;;;;24.20;19.13;;;;;;;-3.65;100.00;97948.91;5033486;28;24529;-77
2022/01/13 02:52:02;;;;;;;21.83;17.75;;;;;;;-3.54;100.00;97945.00;5033757;28;24448;-76
2022/01/13 02:54:30;;;;;;;26.38;17.42;;;;;;;-3.43;100.00;97937.69;5033718;28;24843;-77
2022/01/13 02:56:56;;;;;;;20.50;18.13;;;;;;;-3.43;100.00;97938.56;5033037;28;24424;-77
2022/01/13 02:59:23;;;;;;;20.27;17.83;;;;;;;-3.35;100.00;97941.28;5033604;28;24477;-76
2022/01/13 03:01:49;;;;;;;22.92;19.08;;;;;;;-3.49;100.00;97935.84;5033333;28;24416;-77
2022/01/13 03:04:16;;;;;;;20.92;17.13;;;;;;;-3.56;100.00;97936.53;5033422;28;24974;-77
2022/01/13 03:06:42;;;;;;;22.37;17.47;;;;;;;-3.53;100.00;97938.25;5033220;28;24427;-77
2022/01/13 03:09:11;;;;;;;18.60;16.05;;;;;;;-3.42;100.00;97939.41;5033340;28;24451;-76
2022/01/13 03:11:39;;;;;;;25.30;17.83;;;;;;;-3.30;100.00;97938.88;5031661;28;24420;-77
2022/01/13 03:14:08;;;;;;;21.17;17.55;;;;;;;-3.38;100.00;97938.66;5033337;28;24419;-76
2022/01/13 03:16:35;;;;;;;19.02;16.33;;;;;;;-3.32;100.00;97946.44;5032920;28;24424;-76
2022/01/13 03:19:02;;;;;;;19.52;16.88;;;;;;;-3.24;100.00;97949.16;5033291;28;24486;-76
2022/01/13 03:21:28;;;;;;;20.88;17.05;;;;;;;-3.22;100.00;97938.25;5033083;28;24814;-77
2022/01/13 03:23:55;;;;;;;18.37;16.47;;;;;;;-3.27;100.00;97944.00;5033280;28;24463;-77
2022/01/13 03:26:22;;;;;;;23.98;18.25;;;;;;;-3.27;100.00;97951.63;5032594;28;24858;-77
2022/01/13 03:29:04;;;;;;;21.92;18.10;;;;;;;-2.59;100.00;97955.03;5033081;28;24543;-77
2022/01/13 03:31:31;;;;;;;28.25;17.80;;;;;;;-2.83;100.00;97949.38;5033005;28;24909;-76
2022/01/13 03:33:57;;;;;;;21.88;17.27;;;;;;;-2.95;100.00;97949.91;5032918;28;24416;-76
2022/01/13 03:36:24;;;;;;;20.53;17.80;;;;;;;-3.06;100.00;97931.06;5032627;28;24423;-77
2022/01/13 03:38:51;;;;;;;18.77;15.50;;;;;;;-3.10;100.00;97927.56;5032670;28;24812;-77
2022/01/13 03:41:19;;;;;;;20.25;16.55;;;;;;;-3.06;100.00;97924.28;5032936;28;24520;-77
2022/01/13 03:43:46;;;;;;;24.23;17.73;;;;;;;-3.08;100.00;97920.00;5032396;28;24964;-77
2022/01/13 03:46:14;;;;;;;16.58;14.80;;;;;;;-3.13;100.00;97908.91;5036131;28;24443;-77
2022/01/13 03:48:41;;;;;;;20.92;15.32;;;;;;;-3.20;100.00;97910.41;5052519;28;24531;-77
2022/01/13 03:51:08;;;;;;;21.48;14.85;;;;;;;-3.30;100.00;97918.59;5032617;28;24988;-77
2022/01/13 03:54:14;;;;;;;16.77;15.02;;;;;;;-3.21;100.00;97911.25;5047485;28;24442;-77
2022/01/13 03:57:25;;;;;;;24.13;14.52;;;;;;;-3.32;100.00;97908.44;5051901;28;24485;-77
2022/01/13 04:00:54;;;;;;;18.37;15.33;;;;;;;-3.43;100.00;97912.38;5052397;28;24832;-77
2022/01/13 04:03:22;;;;;;;17.20;14.50;;;;;;;-3.34;100.00;97907.50;5052397;28;24415;-77
2022/01/13 04:06:04;;;;;;;18.50;14.10;;;;;;;-3.23;100.00;97918.78;5100563;22;24466;-77
2022/01/13 04:08:31;;;;;;;18.60;14.57;;;;;;;-3.28;100.00;97915.28;5068868;28;24807;-77
2022/01/13 04:11:19;;;;;;;15.48;13.98;;;;;;;-3.13;100.00;97919.03;5074559;28;25001;-76
2022/01/13 04:13:55;;;;;;;19.83;14.75;;;;;;;-3.17;100.00;97921.50;5074652;28;24422;-77
2022/01/13 04:16:24;;;;;;;19.67;14.85;;;;;;;-3.42;100.00;97926.72;5074841;28;24431;-77
2022/01/13 04:18:53;;;;;;;18.85;15.13;;;;;;;-3.52;100.00;97912.09;5074885;28;24423;-77
2022/01/13 04:21:20;;;;;;;17.50;14.70;;;;;;;-3.16;100.00;97922.34;5075275;28;24443;-77
2022/01/13 04:23:46;;;;;;;20.92;15.40;;;;;;;-3.09;100.00;97923.38;5075387;28;24427;-77
2022/01/13 04:26:17;;;;;;;18.20;14.98;;;;;;;-3.09;100.00;97928.44;5075159;28;24792;-77
2022/01/13 04:28:43;;;;;;;18.30;15.00;;;;;;;-3.11;100.00;97930.09;5075772;28;24446;-78
2022/01/13 04:31:10;;;;;;;17.15;15.30;;;;;;;-3.28;100.00;97932.19;5074979;28;24430;-77
2022/01/13 04:33:37;;;;;;;15.95;13.98;;;;;;;-3.20;100.00;97929.00;5074659;28;24966;-78
2022/01/13 04:36:07;;;;;;;18.50;13.98;;;;;;;-3.08;100.00;97923.38;5074640;28;24427;-78
2022/01/13 04:38:34;;;;;;;17.30;14.38;;;;;;;-3.12;100.00;97921.59;5075388;28;24406;-78
2022/01/13 04:41:02;;;;;;;14.98;13.38;;;;;;;-3.17;100.00;97911.34;5064652;28;24983;-77
2022/01/13 04:43:31;;;;;;;16.23;13.73;;;;;;;-3.29;100.00;97911.06;5068632;28;24963;-77
2022/01/13 04:45:57;;;;;;;16.95;14.63;;;;;;;-3.17;100.00;97913.03;5073804;28;24425;-76
2022/01/13 04:48:25;;;;;;;16.95;13.32;;;;;;;-3.10;100.00;97911.50;5073519;28;24442;-77
2022/01/13 04:50:51;;;;;;;15.55;12.82;;;;;;;-3.10;100.00;97908.97;5073946;28;24453;-77
2022/01/13 04:53:19;;;;;;;19.17;14.30;;;;;;;-3.09;100.00;97918.28;5073999;28;24430;-77
2022/01/13 04:55:51;;;;;;;15.73;14.02;;;;;;;-3.08;100.00;97915.78;5073139;28;24506;-77
2022/01/13 04:58:21;;;;;;;16.55;14.27;;;;;;;-3.30;100.00;97908.47;5073239;28;24513;-77
2022/01/13 05:00:48;;;;;;;18.33;14.82;;;;;;;-3.22;100.00;97915.47;5073482;28;24480;-77
2022/01/13 05:03:14;;;;;;;17.73;13.57;;;;;;;-3.26;100.00;97918.75;5073495;28;24571;-77
2022/01/13 05:05:41;;;;;;;17.17;14.80;;;;;;;-3.36;100.00;97921.84;5072567;28;24415;-77
2022/01/13 05:08:07;;;;;;;16.98;14.38;;;;;;;-3.37;100.00;97916.72;5065997;28;24512;-77
2022/01/13 05:10:35;;;;;;;15.40;13.52;;;;;;;-3.37;100.00;97934.44;5068247;28;24426;-76
2022/01/13 05:13:04;;;;;;;15.45;13.05;;;;;;;-3.27;100.00;97937.28;5073206;28;24502;-76
2022/01/13 05:15:31;;;;;;;16.35;13.63;;;;;;;-3.01;100.00;97937.09;5073099;28;24481;-77
2022/01/13 05:18:14;;;;;;;15.68;14.07;;;;;;;-2.91;100.00;97944.09;5071713;28;24431;-76
2022/01/13 05:20:46;;;;;;;23.42;13.57;;;;;;;-2.88;100.00;97945.88;5070881;28;24833;-76
2022/01/13 05:23:13;;;;;;;15.80;13.83;;;;;;;-2.94;100.00;97942.34;5070673;28;24530;-76
2022/01/13 05:25:43;;;;;;;16.80;13.40;;;;;;;-2.85;100.00;97944.25;5070231;28;24827;-76
2022/01/13 05:28:10;;;;;;;12.70;11.43;;;;;;;-2.79;100.00;97936.78;5070806;28;24442;-76
2022/01/13 05:30:37;;;;;;;15.82;13.25;;;;;;;-2.96;100.00;97948.22;5070733;28;24638;-76
2022/01/13 05:33:04;;;;;;;16.50;13.10;;;;;;;-3.00;100.00;97954.03;5070128;28;24793;-76
2022/01/13 05:35:31;;;;;;;14.07;10.40;;;;;;;-2.88;100.00;97953.47;5070059;28;24430;-76
2022/01/13 05:37:57;;;;;;;12.65;11.35;;;;;;;-2.91;100.00;97949.19;5070516;28;24407;-76
2022/01/13 05:40:24;;;;;;;11.05;9.85;;;;;;;-2.87;100.00;97950.09;5070667;28;24418;-75
2022/01/13 05:42:52;;;;;;;12.07;9.90;;;;;;;-2.82;100.00;97944.31;5070452;28;24962;-75
2022/01/13 05:45:21;;;;;;;9.18;8.27;;;;;;;-2.81;100.00;97937.59;5069961;28;24429;-75
2022/01/13 05:47:49;;;;;;;8.30;7.45;;;;;;;-2.76;100.00;97928.41;5069979;28;24469;-75
2022/01/13 05:50:17;;;;;;;8.25;7.43;;;;;;;-2.68;100.00;97934.50;5070218;28;25286;-76
2022/01/13 05:52:44;;;;;;;10.07;7.80;;;;;;;-2.53;100.00;97937.41;5070333;28;24472;-76
2022/01/13 05:55:12;;;;;;;12.80;8.80;;;;;;;-2.58;100.00;97945.75;5070174;28;24544;-78
2022/01/13 05:57:38;;;;;;;9.95;8.95;;;;;;;-2.54;100.00;97939.91;5072054;28;24965;-78
2022/01/13 06:00:09;;;;;;;10.50;9.23;;;;;;;-2.42;100.00;97941.88;5071978;28;24430;-78
2022/01/13 06:02:36;;;;;;;12.48;11.00;;;;;;;-2.40;100.00;97941.09;5070790;28;24415;-78
2022/01/13 06:05:03;;;;;;;11.17;9.93;;;;;;;-2.32;100.00;97941.28;5053148;28;24972;-77
2022/01/13 06:07:29;;;;;;;13.55;11.02;;;;;;;-2.32;100.00;97937.03;5061331;28;24434;-76
2022/01/13 06:09:56;;;;;;;14.68;12.82;;;;;;;-2.13;100.00;97937.44;5060866;28;24446;-74
2022/01/13 06:12:32;;;;;;;14.60;12.93;;;;;;;-1.98;100.00;97940.31;5058369;28;24434;-76
2022/01/13 06:14:59;;;;;;;14.52;13.10;;;;;;;-2.21;100.00;97933.06;5038711;28;24439;-75
2022/01/13 06:17:27;;;;;;;15.80;14.10;;;;;;;-2.42;100.00;97934.25;5047774;28;24438;-76
2022/01/13 06:19:54;;;;;;;14.45;13.05;;;;;;;-2.35;100.00;97942.03;5046558;28;24434;-75
2022/01/13 06:22:20;;;;;;;15.73;13.15;;;;;;;-2.00;100.00;97941.97;5045914;28;24441;-76
2022/01/13 06:24:47;;;;;;;16.48;13.15;;;;;;;-2.22;100.00;97940.66;5051770;28;24828;-76
2022/01/13 06:27:13;;;;;;;13.98;11.95;;;;;;;-2.24;100.00;97949.91;5049214;28;25014;-76
2022/01/13 06:29:40;;;;;;;16.77;12.13;;;;;;;-2.26;100.00;97951.56;5042077;28;24447;-77
2022/01/13 06:32:07;;;;;;;14.07;12.68;;;;;;;-1.94;100.00;97939.56;5030049;28;24424;-76
2022/01/13 06:34:35;;;;;;;16.10;13.45;;;;;;;-1.86;100.00;97937.16;5029421;28;24416;-77
2022/01/13 06:37:01;;;;;;;16.40;13.70;;;;;;;-2.17;100.00;97933.13;5047568;28;24435;-76
2022/01/13 06:39:28;;;;;;;16.52;13.48;;;;;;;-2.30;100.00;97935.41;5033032;28;24470;-76
2022/01/13 06:41:54;;;;;;;15.23;13.63;;;;;;;-2.01;100.00;97935.16;5029919;28;24419;-76
2022/01/13 06:44:21;;;;;;;18.88;14.68;;;;;;;-1.76;100.00;97937.38;5038593;28;24427;-75
2022/01/13 06:46:47;;;;;;;18.23;14.77;;;;;;;-2.02;100.00;97933.47;5050250;28;24435;-76
2022/01/13 06:49:14;;;;;;;10.50;9.40;;;;;;;-2.18;100.00;97942.44;5053185;28;24450;-76
2022/01/13 06:51:41;;;;;;;12.98;9.55;;;;;;;-2.17;100.00;97945.81;5049192;28;24419;-76
2022/01/13 06:54:08;;;;;;;11.25;10.02;;;;;;;-2.13;100.00;97947.59;5063734;28;24423;-76
2022/01/13 06:56:34;;;;;;;11.98;10.68;;;;;;;-2.12;100.00;97941.69;5054066;28;24438;-75
2022/01/13 06:59:05;;;;;;;13.40;10.80;;;;;;;-2.09;100.00;97946.84;5051516;28;24415;-75
2022/01/13 07:01:31;;;;;;;13.35;11.93;;;;;;;-2.10;100.00;97952.75;5033536;28;24432;-76
2022/01/13 07:03:58;;;;;;;15.73;14.02;;;;;;;-2.21;100.00;97953.38;5033206;28;24434;-75
2022/01/13 07:06:24;;;;;;;23.10;17.20;;;;;;;-2.22;100.00;97961.81;5046207;28;25003;-74
2022/01/13 07:08:52;;;;;;;20.63;15.40;;;;;;;-2.33;100.00;97963.25;5039320;28;24546;-72
2022/01/13 07:11:18;;;;;;;15.05;13.45;;;;;;;-2.26;100.00;97964.25;5033048;28;24423;-76
2022/01/13 07:13:45;;;;;;;17.17;14.27;;;;;;;-2.18;100.00;97967.81;5037382;28;24837;-76
2022/01/13 07:16:12;;;;;;;15.32;13.68;;;;;;;-2.27;100.00;97970.13;5037464;28;24435;-76
2022/01/13 07:18:39;;;;;;;19.65;13.85;;;;;;;-2.40;100.00;97975.78;5053081;28;24423;-76
2022/01/13 07:21:07;;;;;;;16.00;14.18;;;;;;;-2.44;100.00;97975.69;5053130;28;24431;-76
2022/01/13 07:23:33;;;;;;;16.30;13.18;;;;;;;-2.35;100.00;97984.34;5043923;28;24432;-76
2022/01/13 07:26:02;;;;;;;13.85;12.35;;;;;;;-2.20;100.00;97995.69;5033220;28;25000;-76
2022/01/13 07:28:29;;;;;;;15.93;14.30;;;;;;;-1.90;100.00;97987.03;5032665;28;24423;-76
2022/01/13 07:30:55;;;;;;;12.87;11.40;;;;;;;-1.54;100.00;97988.66;5049160;28;24516;-76
2022/01/13 07:33:22;;;;;;;13.23;11.70;;;;;;;-1.55;100.00;97987.78;5052790;28;24470;-76
2022/01/13 07:35:48;;;;;;;14.40;11.90;;;;;;;-1.61;100.00;97994.44;5051608;28;24442;-76
2022/01/13 07:38:14;;;;;;;12.75;11.40;;;;;;;-1.63;100.00;97996.94;5047179;28;24431;-75
2022/01/13 07:40:41;;;;;;;12.73;11.43;;;;;;;-1.91;100.00;98004.81;5032670;28;24427;-75
2022/01/13 07:43:09;;;;;;;17.52;11.63;;;;;;;-2.05;100.00;98007.03;5032527;28;24849;-76
2022/01/13 07:45:35;;;;;;;16.27;13.00;;;;;;;-1.51;100.00;98007.34;5044029;28;24968;-76
2022/01/13 07:48:02;;;;;;;17.98;11.25;;;;;;;-1.52;100.00;98007.31;5052966;28;24499;-77
2022/01/13 07:50:28;;;;;;;12.57;10.82;;;;;;;-1.67;100.00;98005.31;5052506;28;24447;-76
2022/01/13 07:52:54;;;;;;;13.70;11.70;;;;;;;-1.77;100.00;97998.34;5052307;28;24523;-76
2022/01/13 07:55:21;;;;;;;14.93;11.85;;;;;;;-1.81;100.00;98004.19;5054258;28;24447;-75
2022/01/13 07:57:47;;;;;;;15.32;11.85;;;;;;;-1.93;100.00;97999.66;5057519;28;24435;-75
2022/01/13 08:00:16;;;;;;;14.98;11.10;;;;;;;-1.95;100.00;98014.03;5051934;28;24431;-76
2022/01/13 08:02:43;;;;;;;16.20;11.97;;;;;;;-1.92;100.00;98006.47;5052154;28;24964;-75
2022/01/13 08:05:10;;;;;;;14.02;11.82;;;;;;;-1.91;100.00;98014.97;5050483;28;24800;-75
2022/01/13 08:07:36;;;;;;;12.30;11.10;;;;;;;-1.85;100.00;98005.78;5057242;28;24485;-76
2022/01/13 08:10:04;;;;;;;14.88;13.25;;;;;;;-1.76;100.00;98003.44;5056963;28;25318;-76
2022/01/13 08:12:30;;;;;;;18.80;14.07;;;;;;;-1.75;100.00;98002.59;5066223;28;25035;-76
2022/01/13 08:14:57;;;;;;;19.05;15.25;;;;;;;-1.82;100.00;98005.84;5053555;28;24448;-74
2022/01/13 08:20:10;;;;;;;21.85;16.52;;;;;;;-1.84;100.00;98004.09;5049707;28;24653;-76
2022/01/13 08:22:37;;;;;;;25.60;18.13;;;;;;;-1.91;100.00;98002.25;5051571;28;24411;-75
2022/01/13 08:25:04;;;;;;;21.25;16.83;;;;;;;-1.83;100.00;97999.06;5040218;28;24439;-76
2022/01/13 08:27:30;;;;;;;19.88;15.13;;;;;;;-1.74;100.00;97995.88;5057340;28;24427;-76
2022/01/13 08:29:57;;;;;;;20.13;15.10;;;;;;;-1.73;100.00;97997.56;5061826;28;24455;-76
2022/01/13 08:32:25;;;;;;;18.35;13.30;;;;;;;-1.74;100.00;98003.50;5051250;28;24423;-76
2022/01/13 08:34:51;;;;;;;16.67;13.50;;;;;;;-1.68;100.00;98002.75;5048793;28;24518;-76
2022/01/13 08:37:18;;;;;;;16.00;12.93;;;;;;;-1.66;100.00;97993.50;5050755;28;24435;-76
2022/01/13 08:39:45;;;;;;;23.25;16.52;;;;;;;-1.62;100.00;97997.81;5036720;28;24463;-76
2022/01/13 08:42:12;;;;;;;24.02;16.08;;;;;;;-1.53;100.00;97997.97;5031044;28;24442;-76
2022/01/13 08:44:39;;;;;;;17.92;12.88;;;;;;;-1.57;100.00;98002.13;5035603;28;24439;-75
2022/01/13 08:47:06;;;;;;;14.52;12.25;;;;;;;-1.60;100.00;98001.22;5045519;28;24435;-75
2022/01/13 08:49:34;;;;;;;15.57;13.05;;;;;;;-1.58;100.00;97986.88;5050710;28;24999;-75
2022/01/13 08:52:01;;;;;;;17.83;14.02;;;;;;;-1.55;100.00;97997.09;5050854;28;24489;-75
2022/01/13 08:54:28;;;;;;;17.80;13.27;;;;;;;-1.67;100.00;97997.69;5034694;28;24435;-76
2022/01/13 08:56:54;;;;;;;19.38;10.75;;;;;;;-1.68;100.00;98001.06;5045104;28;24935;-76
2022/01/13 08:59:21;;;;;;;15.18;11.25;;;;;;;-1.64;100.00;98007.91;5044548;28;24436;-75
2022/01/13 09:01:47;;;;;;;17.67;12.18;;;;;;;-1.56;100.00;98005.53;5030352;28;24439;-76
2022/01/13 09:04:14;;;;;;;17.83;11.80;;;;;;;-1.60;100.00;98002.06;5030859;28;25050;-75
2022/01/13 09:06:41;;;;;;;16.13;11.32;;;;;;;-1.55;100.00;98004.72;5033375;28;24442;-75
2022/01/13 09:09:08;;;;;;;27.85;11.25;;;;;;;-1.55;100.00;98005.59;5029930;28;24452;-76
2022/01/13 09:11:35;;;;;;;11.60;9.07;;;;;;;-1.56;100.00;98006.41;5030925;28;24474;-75
2022/01/13 09:14:01;;;;;;;15.07;9.60;;;;;;;-1.55;100.00;98000.50;5034963;28;24435;-75
2022/01/13 09:16:30;;;;;;;53.08;11.73;;;;;;;-1.77;100.00;98006.81;5039344;28;24439;-75
2022/01/13 09:19:08;;;;;;;19.80;14.25;;;;;;;-1.71;100.00;98004.41;5043492;28;24869;-76
2022/01/13 09:21:37;;;;;;;17.35;11.73;;;;;;;-1.54;100.00;98001.34;5030855;28;24500;-76
2022/01/13 09:24:06;;;;;;;19.80;11.10;;;;;;;-1.47;100.00;97995.56;5030776;28;24428;-75
2022/01/13 09:26:33;;;;;;;15.55;11.48;;;;;;;-1.48;100.00;97998.94;5045975;28;24435;-75
2022/01/13 09:28:59;;;;;;;17.75;11.98;;;;;;;-1.58;100.00;97991.97;5030991;28;24438;-75
2022/01/13 09:31:26;;;;;;;17.40;10.73;;;;;;;-1.82;100.00;97992.28;5030410;28;24419;-75
2022/01/13 09:33:53;;;;;;;11.75;10.43;;;;;;;-1.82;100.00;97992.28;5030384;28;24519;-76
2022/01/13 09:36:20;;;;;;;11.82;10.23;;;;;;;-1.69;100.00;97991.72;5043470;28;24466;-75
2022/01/13 09:38:47;;;;;;;21.88;10.95;;;;;;;-1.73;100.00;97995.03;5049019;28;24771;-75
2022/01/13 09:41:15;;;;;;;14.20;11.73;;;;;;;-1.79;100.00;97985.59;5050379;28;24438;-75
2022/01/13 09:43:44;;;;;;;16.38;11.65;;;;;;;-1.80;100.00;97988.97;5049849;28;24434;-75
2022/01/13 09:46:11;;;;;;;15.48;11.68;;;;;;;-1.70;100.00;97982.41;5041080;28;24439;-75
2022/01/13 09:48:39;;;;;;;14.38;12.27;;;;;;;-1.61;100.00;97985.13;5050332;28;24426;-75
2022/01/13 09:51:06;;;;;;;17.05;11.23;;;;;;;-1.48;100.00;97983.69;5050326;28;24504;-76
2022/01/13 09:53:33;;;;;;;16.45;11.52;;;;;;;-1.47;100.00;97975.25;5039169;28;24460;-78
2022/01/13 09:55:59;;;;;;;17.85;11.98;;;;;;;-1.63;100.00;97970.66;5041587;28;24438;-73
2022/01/13 09:58:27;;;;;;;15.95;12.05;;;;;;;-1.39;100.00;97970.31;5050401;28;24419;-74
2022/01/13 10:00:54;;;;;;;14.57;12.00;;;;;;;-1.26;100.00;97967.16;5048887;28;24430;-74
2022/01/13 10:03:23;;;;;;;14.82;11.05;;;;;;;-1.14;100.00;97967.41;5050409;28;24434;-74
2022/01/13 10:05:51;;;;;;;15.15;12.55;;;;;;;-1.05;100.00;97964.16;5047682;28;24446;-74
2022/01/13 10:08:20;;;;;;;13.10;10.98;;;;;;;-1.00;100.00;97962.56;5035820;28;24439;-74
2022/01/13 10:10:47;;;;;;;17.42;13.25;;;;;;;-0.97;100.00;97968.53;5030043;28;24440;-74
2022/01/13 10:13:23;;;;;;;14.63;11.93;;;;;;;-0.91;100.00;97967.81;5030185;28;24420;-75
2022/01/13 10:18:43;;;;;;;13.57;9.80;;;;;;;-0.40;100.00;97979.69;5050048;28;24549;-75
2022/01/13 10:21:11;;;;;;;10.55;8.85;;;;;;;0.01;100.00;97971.81;5053304;28;24421;-74
2022/01/13 10:23:58;;;;;;;10.55;8.93;;;;;;;0.21;100.00;97967.81;5061316;23;24475;-75
2022/01/13 10:26:25;;;;;;;13.48;9.27;;;;;;;0.05;100.00;97977.78;5052794;28;24962;-75
2022/01/13 10:28:52;;;;;;;10.85;8.93;;;;;;;-0.01;100.00;97973.44;5053307;28;24951;-76
2022/01/13 10:31:20;;;;;;;11.63;8.15;;;;;;;0.23;100.00;97966.16;5053816;28;24546;-74
2022/01/13 10:33:47;;;;;;;10.73;7.87;;;;;;;0.46;100.00;97974.09;5060493;28;24419;-74
2022/01/13 10:36:14;;;;;;;11.40;8.80;;;;;;;0.26;100.00;97961.91;5074369;28;24998;-73
2022/01/13 10:38:52;;;;;;;9.85;8.13;;;;;;;0.58;100.00;97959.78;5073113;28;24514;-73
2022/01/13 10:41:31;;;;;;;8.70;7.80;;;;;;;0.70;100.00;97965.00;5073513;28;24518;-74
2022/01/13 10:44:18;;;;;;;11.73;7.82;;;;;;;1.12;100.00;97963.75;5072605;28;24443;-74
2022/01/13 10:46:59;;;;;;;7.07;6.37;;;;;;;1.34;100.00;97960.56;5074070;28;24441;-74
2022/01/13 10:49:33;;;;;;;8.13;7.00;;;;;;;1.30;100.00;97963.03;5073193;28;24438;-74
2022/01/13 10:52:23;;;;;;;7.95;7.15;;;;;;;1.42;100.00;97960.63;5073179;28;24440;-74
2022/01/13 10:54:52;;;;;;;9.88;7.40;;;;;;;1.36;100.00;97970.78;5073661;28;24504;-75
2022/01/13 10:57:20;;;;;;;7.93;6.20;;;;;;;1.52;100.00;97969.19;5069657;28;24521;-74
2022/01/13 10:59:47;;;;;;;8.30;7.32;;;;;;;2.26;100.00;97968.84;5072322;28;24438;-74
2022/01/13 11:02:15;;;;;;;8.05;6.90;;;;;;;2.49;100.00;97975.78;5073392;28;24438;-74
2022/01/13 11:04:41;;;;;;;7.70;6.93;;;;;;;2.72;100.00;97963.06;5073505;28;24431;-74
2022/01/13 11:07:16;;;;;;;9.30;7.60;;;;;;;2.45;100.00;97976.59;5073510;28;24488;-74
2022/01/13 11:09:44;;;;;;;8.50;6.55;;;;;;;2.82;99.85;97973.34;5071589;28;24437;-74
2022/01/13 11:12:13;;;;;;;6.38;5.22;;;;;;;2.56;96.86;97968.16;5073088;28;24458;-74
2022/01/13 11:14:42;;;;;;;6.25;5.05;;;;;;;2.50;97.40;97965.53;5071855;28;24871;-74
2022/01/13 11:17:10;;;;;;;4.70;4.28;;;;;;;2.59;95.44;97968.13;5072416;28;24434;-74
2022/01/13 11:19:41;;;;;;;6.97;5.30;;;;;;;2.59;95.73;97964.72;5072559;28;24506;-74
2022/01/13 11:22:09;;;;;;;7.25;5.88;;;;;;;2.23;96.03;97971.41;5072478;28;24827;-74
2022/01/13 11:24:37;;;;;;;8.38;5.40;;;;;;;2.31;96.09;97969.72;5072280;28;24987;-74
2022/01/13 11:27:04;;;;;;;7.15;5.70;;;;;;;2.13;96.76;97969.63;5072063;28;24427;-74
2022/01/13 11:29:31;;;;;;;6.35;5.22;;;;;;;2.25;96.66;97962.00;5072116;28;24462;-74